Time;durP1;ratioP1;P1;durP2;ratioP2;P2;SDS_P1;SDS_P2;PMS_P1;PMS_P2;Temp;Humidity;BMP_temperature;BMP_pressure;BME280_temperature;BME280_humidity;BME280_pressure;Samples;Min_cycle;Max_cycle;Signal;HPM_P1;HPM_P2
2022/12/20 00:01:08;;;;;;;7.18;6.47;;;15.60;45.20;;;;;;5035871;28;20215;-65
2022/12/20 00:03:36;;;;;;;7.40;6.68;;;15.60;44.60;;;;;;5035686;28;20230;-65
2022/12/20 00:06:04;;;;;;;7.57;6.22;;;15.60;44.70;;;;;;5035972;28;20405;-64
2022/12/20 00:08:33;;;;;;;7.22;6.57;;;15.60;44.70;;;;;;5036125;28;20230;-64
2022/12/20 00:11:01;;;;;;;7.63;6.80;;;15.60;44.80;;;;;;5036413;28;20295;-64
2022/12/20 00:13:29;;;;;;;6.78;6.18;;;15.50;44.60;;;;;;5037670;28;20266;-64
2022/12/20 00:16:07;;;;;;;6.90;6.20;;;15.50;44.80;;;;;;5038791;28;20654;-65
2022/12/20 00:18:34;;;;;;;7.03;6.35;;;15.50;44.90;;;;;;5039275;28;20223;-65
2022/12/20 00:21:03;;;;;;;7.28;6.57;;;15.50;44.90;;;;;;5042054;28;20196;-65
2022/12/20 00:23:31;;;;;;;7.82;6.60;;;15.50;45.00;;;;;;5036616;28;20220;-64
2022/12/20 00:26:03;;;;;;;6.95;6.25;;;15.40;44.80;;;;;;5050859;28;20203;-64
2022/12/20 00:28:31;;;;;;;7.30;6.70;;;15.40;45.00;;;;;;5047783;28;20307;-64
2022/12/20 00:30:58;;;;;;;7.13;6.40;;;15.40;45.00;;;;;;5046992;28;20254;-64
2022/12/20 00:33:25;;;;;;;6.97;6.28;;;15.40;45.00;;;;;;5041746;28;20184;-65
2022/12/20 00:35:54;;;;;;;7.13;6.43;;;15.40;45.00;;;;;;5038340;28;20200;-65
2022/12/20 00:38:21;;;;;;;6.97;6.30;;;15.40;45.10;;;;;;5038173;28;20262;-65
2022/12/20 00:41:03;;;;;;;7.03;6.43;;;15.30;45.00;;;;;;5037032;28;20192;-65
2022/12/20 00:43:30;;;;;;;7.20;6.50;;;15.30;45.00;;;;;;5035845;28;20314;-65
2022/12/20 00:45:57;;;;;;;7.60;6.80;;;15.30;45.00;;;;;;5036602;28;20674;-65
2022/12/20 00:48:26;;;;;;;7.00;6.30;;;15.30;45.00;;;;;;5034890;28;20212;-65
2022/12/20 00:50:58;;;;;;;7.47;6.32;;;15.30;45.00;;;;;;5034789;28;20207;-65
2022/12/20 00:53:25;;;;;;;7.32;6.63;;;15.30;45.10;;;;;;5034734;28;20196;-65
2022/12/20 00:55:55;;;;;;;7.38;6.68;;;15.30;45.20;;;;;;5034901;28;20246;-63
2022/12/20 00:58:22;;;;;;;6.30;5.65;;;15.30;45.20;;;;;;5034485;28;20252;-63
2022/12/20 01:00:49;;;;;;;7.40;6.70;;;15.20;45.20;;;;;;5034873;28;20200;-64
2022/12/20 01:03:16;;;;;;;6.80;6.10;;;15.20;45.30;;;;;;5034885;28;20219;-64
2022/12/20 01:05:51;;;;;;;7.47;6.78;;;15.20;45.20;;;;;;5034294;28;20200;-64
2022/12/20 01:08:19;;;;;;;7.18;6.38;;;15.20;45.30;;;;;;5035285;28;20227;-63
2022/12/20 01:10:46;;;;;;;7.35;6.65;;;15.20;45.30;;;;;;5034266;28;20200;-63
2022/12/20 01:13:15;;;;;;;6.95;6.35;;;15.20;45.30;;;;;;5034185;28;20203;-63
2022/12/20 01:15:43;;;;;;;6.53;5.93;;;15.10;45.30;;;;;;5034498;28;20196;-63
2022/12/20 01:18:09;;;;;;;6.80;6.20;;;15.10;45.30;;;;;;5034300;28;20230;-63
2022/12/20 01:20:37;;;;;;;7.22;6.53;;;15.10;45.40;;;;;;5034471;28;20677;-63
2022/12/20 01:23:04;;;;;;;6.95;6.22;;;15.10;45.40;;;;;;5034357;28;20227;-63
2022/12/20 01:25:31;;;;;;;7.00;6.40;;;15.10;45.50;;;;;;5034394;28;20196;-63
2022/12/20 01:27:58;;;;;;;7.20;6.50;;;15.10;45.60;;;;;;5034074;28;20216;-63
2022/12/20 01:30:27;;;;;;;7.22;6.50;;;15.10;45.50;;;;;;5035154;28;20287;-63
2022/12/20 01:32:54;;;;;;;7.03;6.32;;;15.10;45.60;;;;;;5034438;28;20199;-63
2022/12/20 01:35:21;;;;;;;7.55;6.65;;;15.10;45.50;;;;;;5034427;28;20200;-63
2022/12/20 01:37:49;;;;;;;7.30;6.60;;;15.00;45.50;;;;;;5034517;28;20737;-64
2022/12/20 01:40:16;;;;;;;7.88;7.15;;;15.00;45.50;;;;;;5033474;28;20246;-64
2022/12/20 01:42:43;;;;;;;6.63;6.03;;;15.00;45.60;;;;;;5036332;28;20207;-64
2022/12/20 01:45:15;;;;;;;7.97;6.35;;;15.00;45.70;;;;;;5034233;28;20224;-64
2022/12/20 01:47:43;;;;;;;6.43;5.90;;;15.00;45.70;;;;;;5034035;28;20246;-64
2022/12/20 01:50:10;;;;;;;7.68;6.88;;;15.00;45.70;;;;;;5034041;28;20201;-64
2022/12/20 01:52:39;;;;;;;7.28;6.55;;;15.00;45.70;;;;;;5034203;28;20663;-64
2022/12/20 01:55:09;;;;;;;7.35;6.65;;;14.90;45.70;;;;;;5033833;28;20207;-64
2022/12/20 01:57:40;;;;;;;8.02;7.22;;;14.90;45.70;;;;;;5034039;28;20273;-64
2022/12/20 02:00:09;;;;;;;7.28;6.57;;;14.90;45.70;;;;;;5035299;28;20204;-64
2022/12/20 02:02:45;;;;;;;7.80;6.88;;;14.90;45.80;;;;;;5033336;28;20191;-64
2022/12/20 02:05:13;;;;;;;7.55;6.63;;;14.90;46.00;;;;;;5035579;28;20247;-64
2022/12/20 02:07:40;;;;;;;6.93;6.32;;;14.90;45.90;;;;;;5034500;28;20220;-64
2022/12/20 02:10:09;;;;;;;7.03;6.40;;;14.90;46.00;;;;;;5038539;28;20283;-64
2022/12/20 02:12:39;;;;;;;6.38;5.78;;;14.80;45.90;;;;;;5035150;28;20246;-64
2022/12/20 02:15:17;;;;;;;6.82;6.20;;;14.80;46.10;;;;;;5033686;28;20194;-64
2022/12/20 02:17:51;;;;;;;7.00;6.30;;;14.80;46.10;;;;;;5033985;28;20670;-64
2022/12/20 02:21:05;;;;;;;7.45;6.75;;;14.80;46.10;;;;;;5034855;28;20202;-64
2022/12/20 02:23:57;;;;;;;6.75;6.15;;;14.80;46.10;;;;;;5034123;28;20207;-64
2022/12/20 02:26:38;;;;;;;7.80;7.10;;;14.80;46.10;;;;;;5033431;28;20192;-64
2022/12/20 02:29:18;;;;;;;6.72;6.13;;;14.80;46.10;;;;;;5033181;28;20228;-64
2022/12/20 02:31:49;;;;;;;7.50;6.10;;;14.80;46.10;;;;;;5033012;28;20257;-64
2022/12/20 02:34:16;;;;;;;7.25;6.55;;;14.80;46.10;;;;;;5032931;28;20195;-64
2022/12/20 02:36:43;;;;;;;6.50;5.90;;;14.70;46.00;;;;;;5033321;28;20291;-64
2022/12/20 02:39:13;;;;;;;6.70;6.10;;;14.70;46.00;;;;;;5033275;28;20248;-64
2022/12/20 02:41:41;;;;;;;7.63;6.93;;;14.70;46.00;;;;;;5032742;28;20208;-64
2022/12/20 02:47:09;;;;;;;6.90;6.30;;;14.70;46.00;;;;;;4995751;28;20208;-64
2022/12/20 02:49:40;;;;;;;6.75;6.13;;;14.70;46.00;;;;;;5024302;28;20196;-64
2022/12/20 02:52:08;;;;;;;7.32;6.50;;;14.70;46.00;;;;;;5032595;28;20250;-64
2022/12/20 02:54:36;;;;;;;7.28;6.57;;;14.70;46.00;;;;;;5033790;28;20192;-64
2022/12/20 02:57:06;;;;;;;7.05;6.40;;;14.70;46.10;;;;;;5033332;28;20259;-64
2022/12/20 02:59:36;;;;;;;7.43;6.72;;;14.70;46.00;;;;;;5032468;28;20686;-63
2022/12/20 03:02:04;;;;;;;6.55;5.90;;;14.70;46.00;;;;;;5032665;28;20199;-63
2022/12/20 03:04:34;;;;;;;7.07;6.43;;;14.70;46.00;;;;;;5032407;28;20212;-63
2022/12/20 03:07:02;;;;;;;6.78;6.10;;;14.60;46.50;;;;;;5032449;28;20219;-63
2022/12/20 03:09:29;;;;;;;6.75;6.13;;;14.60;46.10;;;;;;5032373;28;20220;-63
2022/12/20 03:11:56;;;;;;;6.40;5.80;;;14.70;46.20;;;;;;5032414;28;20250;-63
2022/12/20 03:14:25;;;;;;;7.10;6.40;;;14.60;46.10;;;;;;5036632;28;20267;-63
2022/12/20 03:16:54;;;;;;;7.32;6.63;;;14.60;46.10;;;;;;5036485;28;20291;-63
2022/12/20 03:19:21;;;;;;;7.03;6.32;;;14.60;46.00;;;;;;5037409;28;20752;-63
2022/12/20 03:21:49;;;;;;;7.32;6.72;;;14.60;46.10;;;;;;5036554;28;20204;-63
2022/12/20 03:24:16;;;;;;;6.40;5.80;;;14.60;46.10;;;;;;5035963;28;20262;-63
2022/12/20 03:26:44;;;;;;;6.80;6.10;;;14.60;46.10;;;;;;5036475;28;20202;-63
2022/12/20 03:29:11;;;;;;;7.38;6.57;;;14.60;45.90;;;;;;5036107;28;20216;-64
2022/12/20 03:31:38;;;;;;;6.43;5.82;;;14.60;46.10;;;;;;5035993;28;20571;-64
2022/12/20 03:34:05;;;;;;;6.75;6.15;;;14.60;46.10;;;;;;5036090;28;20196;-64
2022/12/20 03:36:34;;;;;;;7.13;6.47;;;14.60;46.10;;;;;;5035537;28;20200;-64
2022/12/20 03:39:05;;;;;;;6.72;6.03;;;14.60;46.10;;;;;;5035098;28;20223;-64
2022/12/20 03:41:37;;;;;;;7.03;6.38;;;14.60;46.10;;;;;;5035922;28;20222;-64
2022/12/20 03:44:05;;;;;;;6.68;6.07;;;14.60;46.10;;;;;;5036243;28;20215;-64
2022/12/20 03:46:32;;;;;;;5.95;5.45;;;14.50;46.00;;;;;;5036099;28;20286;-64
2022/12/20 03:48:59;;;;;;;6.50;5.90;;;14.50;46.10;;;;;;5035639;28;20216;-64
2022/12/20 03:51:29;;;;;;;6.75;6.13;;;14.60;46.00;;;;;;5035941;28;20327;-64
2022/12/20 03:53:56;;;;;;;6.85;6.25;;;14.50;46.10;;;;;;5035694;28;20196;-63
2022/12/20 03:56:33;;;;;;;6.65;5.95;;;14.50;45.90;;;;;;5035664;28;20209;-63
2022/12/20 03:59:03;;;;;;;6.82;6.15;;;14.50;46.10;;;;;;5036051;28;20219;-65
2022/12/20 04:01:35;;;;;;;6.72;6.13;;;14.50;46.10;;;;;;5035496;28;20207;-65
2022/12/20 04:04:03;;;;;;;7.22;6.53;;;14.50;46.20;;;;;;5019674;28;20289;-65
2022/12/20 04:06:30;;;;;;;7.20;6.50;;;14.50;46.80;;;;;;5035815;28;20197;-65
2022/12/20 04:08:58;;;;;;;7.03;6.32;;;14.50;46.20;;;;;;5035462;28;20216;-65
2022/12/20 04:11:30;;;;;;;7.05;6.35;;;14.50;46.40;;;;;;5036404;28;20279;-65
2022/12/20 04:14:17;;;;;;;6.80;6.20;;;14.50;46.30;;;;;;5036639;28;20181;-65
2022/12/20 04:16:44;;;;;;;7.18;6.55;;;14.50;46.30;;;;;;5019378;28;20254;-65
2022/12/20 04:19:12;;;;;;;7.07;6.38;;;14.50;46.40;;;;;;5035401;28;20220;-65
2022/12/20 04:21:44;;;;;;;6.85;6.22;;;14.50;46.30;;;;;;5036122;28;20659;-65
2022/12/20 04:24:11;;;;;;;6.68;5.95;;;14.50;46.30;;;;;;5035413;28;20212;-65
2022/12/20 04:26:46;;;;;;;7.03;6.35;;;14.60;46.30;;;;;;5035096;28;20208;-65
2022/12/20 04:29:14;;;;;;;7.32;6.25;;;14.60;46.40;;;;;;5035666;28;20246;-65
2022/12/20 04:31:43;;;;;;;7.18;6.47;;;14.60;46.40;;;;;;5038409;28;20230;-65
2022/12/20 04:34:11;;;;;;;7.00;6.30;;;14.60;46.30;;;;;;5035694;28;20227;-65
2022/12/20 04:36:38;;;;;;;7.20;6.50;;;14.60;46.30;;;;;;5035738;28;20200;-65
2022/12/20 04:39:10;;;;;;;6.38;5.88;;;14.60;46.20;;;;;;5019719;28;20752;-65
2022/12/20 04:41:56;;;;;;;7.03;6.32;;;14.70;46.20;;;;;;5036600;28;20744;-65
2022/12/20 04:44:23;;;;;;;7.35;6.63;;;14.70;46.00;;;;;;5035006;28;20212;-65
2022/12/20 04:46:52;;;;;;;7.15;6.45;;;14.80;46.10;;;;;;5035193;28;20218;-64
2022/12/20 04:49:19;;;;;;;6.82;6.22;;;14.80;46.10;;;;;;5034912;28;20227;-64
2022/12/20 04:51:47;;;;;;;6.63;6.03;;;14.80;46.10;;;;;;5034878;28;20196;-64
2022/12/20 04:54:15;;;;;;;7.07;6.38;;;14.80;45.80;;;;;;5034394;28;20203;-64
2022/12/20 04:56:57;;;;;;;7.00;6.30;;;14.80;45.80;;;;;;5035210;28;20595;-64
2022/12/20 04:59:25;;;;;;;6.70;6.10;;;14.80;45.60;;;;;;5036084;28;20208;-64
2022/12/20 05:01:55;;;;;;;6.10;5.50;;;14.90;45.50;;;;;;5034531;28;20188;-64
2022/12/20 05:04:39;;;;;;;6.32;5.72;;;14.90;45.50;;;;;;5035214;28;20208;-66
2022/12/20 05:07:06;;;;;;;5.95;5.45;;;14.90;45.50;;;;;;5034955;28;20196;-65
2022/12/20 05:09:35;;;;;;;6.45;5.85;;;14.90;45.40;;;;;;5034764;28;20203;-65
2022/12/20 05:12:03;;;;;;;6.50;5.90;;;14.90;45.30;;;;;;5034447;28;20269;-65
2022/12/20 05:14:30;;;;;;;6.40;5.80;;;14.90;45.30;;;;;;5033401;28;20200;-65
2022/12/20 05:16:58;;;;;;;6.85;5.60;;;15.00;45.40;;;;;;5034416;28;20234;-65
2022/12/20 05:19:27;;;;;;;6.38;5.78;;;15.00;45.30;;;;;;5034425;28;20279;-65
2022/12/20 05:27:35;;;;;;;5.93;5.32;;;15.10;45.30;;;;;;5034399;28;20216;-65
2022/12/20 05:30:04;;;;;;;6.05;5.50;;;15.10;45.20;;;;;;5034650;28;20341;-65
2022/12/20 05:32:33;;;;;;;6.82;6.13;;;15.10;45.20;;;;;;5034385;28;20199;-64
2022/12/20 05:35:00;;;;;;;6.28;5.68;;;15.20;45.20;;;;;;5033062;28;20207;-63
2022/12/20 05:37:27;;;;;;;6.07;5.40;;;15.10;45.10;;;;;;5029673;28;20224;-65
2022/12/20 05:39:56;;;;;;;5.20;4.78;;;15.20;45.20;;;;;;5033981;28;20200;-65
2022/12/20 05:42:24;;;;;;;5.78;5.20;;;15.20;45.30;;;;;;5033648;28;20234;-65
2022/12/20 05:44:53;;;;;;;6.28;5.68;;;15.20;45.30;;;;;;5017462;28;20219;-65
2022/12/20 05:47:21;;;;;;;6.55;5.50;;;15.20;45.50;;;;;;5033379;28;20232;-65
2022/12/20 05:49:56;;;;;;;5.93;5.38;;;15.30;45.40;;;;;;5034101;28;20192;-64
2022/12/20 05:52:23;;;;;;;6.38;5.53;;;15.30;45.50;;;;;;5033492;28;20670;-64
2022/12/20 05:54:50;;;;;;;6.20;5.60;;;15.30;45.60;;;;;;5033459;28;20192;-64
2022/12/20 05:57:18;;;;;;;6.15;5.55;;;15.30;45.70;;;;;;5033481;28;20574;-64
2022/12/20 05:59:46;;;;;;;6.65;5.45;;;15.30;45.70;;;;;;5033420;28;20231;-64
2022/12/20 06:02:16;;;;;;;7.40;5.55;;;15.40;46.20;;;;;;5033493;28;20203;-64
2022/12/20 06:04:44;;;;;;;5.97;5.47;;;15.40;46.10;;;;;;5033185;28;20627;-64
2022/12/20 06:07:24;;;;;;;6.05;5.45;;;15.40;46.10;;;;;;5033399;28;20192;-64
2022/12/20 06:09:56;;;;;;;5.90;5.30;;;15.40;46.10;;;;;;5033348;28;20196;-64
2022/12/20 06:12:28;;;;;;;5.63;5.07;;;15.50;46.10;;;;;;5033331;28;20203;-64
2022/12/20 06:14:56;;;;;;;5.53;5.07;;;15.50;46.00;;;;;;5033290;28;20192;-64
2022/12/20 06:17:23;;;;;;;5.18;4.70;;;15.50;45.50;;;;;;5034029;28;20211;-64
2022/12/20 06:19:52;;;;;;;5.38;4.88;;;15.50;44.90;;;;;;5033429;28;20201;-64
2022/12/20 06:22:19;;;;;;;5.50;5.00;;;15.50;44.60;;;;;;5033837;28;20208;-63
2022/12/20 06:24:52;;;;;;;5.57;5.07;;;15.50;44.40;;;;;;5033515;28;20216;-63
2022/12/20 06:27:24;;;;;;;5.63;5.13;;;15.40;44.20;;;;;;5033336;28;20207;-63
2022/12/20 06:30:12;;;;;;;5.70;5.20;;;15.40;44.00;;;;;;5032979;28;20670;-63
2022/12/20 06:32:52;;;;;;;5.63;5.13;;;15.40;44.00;;;;;;5018287;28;20192;-64
2022/12/20 06:35:19;;;;;;;5.30;4.80;;;15.40;43.90;;;;;;5032979;28;20199;-64
2022/12/20 06:37:46;;;;;;;5.55;5.03;;;15.40;44.00;;;;;;5033304;28;20212;-64
2022/12/20 06:40:16;;;;;;;5.13;4.65;;;15.40;43.90;;;;;;5032954;28;20196;-64
2022/12/20 06:42:43;;;;;;;5.45;4.95;;;15.50;43.90;;;;;;5032804;28;20207;-63
2022/12/20 06:45:11;;;;;;;5.22;4.72;;;15.50;44.00;;;;;;5032603;28;20208;-64
2022/12/20 06:47:39;;;;;;;5.00;4.60;;;15.50;43.90;;;;;;5033054;28;20219;-64
2022/12/20 06:50:07;;;;;;;5.80;5.30;;;15.50;43.70;;;;;;5032432;28;20222;-65
2022/12/20 06:52:34;;;;;;;5.53;4.93;;;15.50;43.40;;;;;;5032627;28;20192;-65
2022/12/20 06:55:01;;;;;;;5.78;5.28;;;15.60;43.50;;;;;;5032609;28;20190;-65
2022/12/20 06:57:31;;;;;;;5.38;4.88;;;15.60;43.70;;;;;;5033009;28;20224;-65
2022/12/20 06:59:59;;;;;;;5.57;5.07;;;15.50;43.70;;;;;;5032927;28;20196;-65
2022/12/20 07:02:26;;;;;;;5.20;4.80;;;15.50;43.70;;;;;;5032821;28;20203;-65
2022/12/20 07:04:53;;;;;;;5.57;4.95;;;15.50;43.70;;;;;;5033910;28;20238;-65
2022/12/20 07:07:21;;;;;;;5.20;4.80;;;15.50;43.70;;;;;;5032633;28;20666;-64
2022/12/20 07:09:48;;;;;;;5.45;4.95;;;15.60;43.80;;;;;;5033151;28;20254;-64
2022/12/20 07:12:15;;;;;;;6.00;5.40;;;15.60;43.80;;;;;;5034846;28;20195;-64
2022/12/20 07:14:43;;;;;;;5.00;4.60;;;15.60;43.80;;;;;;5034175;28;20254;-64
2022/12/20 07:17:10;;;;;;;5.45;4.95;;;15.60;43.80;;;;;;5033932;28;20199;-64
2022/12/20 07:19:37;;;;;;;5.10;4.60;;;15.60;43.80;;;;;;5016969;28;20224;-64
2022/12/20 07:22:04;;;;;;;5.35;4.95;;;15.60;43.90;;;;;;5032592;28;20207;-64
2022/12/20 07:24:31;;;;;;;5.13;4.63;;;15.60;43.90;;;;;;5033782;28;20192;-64
2022/12/20 07:26:58;;;;;;;5.20;4.63;;;15.60;43.90;;;;;;5032994;28;20253;-63
2022/12/20 07:29:26;;;;;;;5.40;5.00;;;15.60;43.80;;;;;;5033830;28;20212;-64
2022/12/20 07:31:54;;;;;;;5.50;5.00;;;15.60;43.90;;;;;;5032635;28;20619;-64
2022/12/20 07:34:22;;;;;;;5.38;4.88;;;15.60;43.90;;;;;;5032801;28;20199;-64
2022/12/20 07:36:49;;;;;;;5.28;4.78;;;15.60;43.90;;;;;;5033332;28;20198;-64
2022/12/20 07:39:16;;;;;;;6.65;5.30;;;15.60;43.80;;;;;;5032847;28;20306;-64
2022/12/20 07:41:43;;;;;;;5.30;4.18;;;15.60;44.00;;;;;;5034147;28;20200;-64
2022/12/20 07:44:16;;;;;;;5.35;4.78;;;15.60;43.90;;;;;;5033955;28;20185;-64
2022/12/20 07:46:43;;;;;;;5.60;4.90;;;15.60;43.90;;;;;;5033082;28;20248;-64
2022/12/20 07:49:12;;;;;;;5.10;4.53;;;15.70;43.90;;;;;;5033545;28;20216;-64
2022/12/20 07:51:40;;;;;;;5.13;4.68;;;15.70;43.90;;;;;;5034500;28;20202;-64
2022/12/20 07:54:11;;;;;;;5.03;4.63;;;15.70;43.90;;;;;;5033468;28;20204;-64
2022/12/20 07:56:39;;;;;;;5.90;4.55;;;15.70;43.80;;;;;;5032324;28;20547;-64
2022/12/20 07:59:07;;;;;;;5.00;4.50;;;15.70;43.90;;;;;;5032240;28;20227;-64
2022/12/20 08:01:34;;;;;;;4.90;4.40;;;15.70;43.80;;;;;;5035040;28;20200;-64
2022/12/20 08:04:04;;;;;;;4.90;4.50;;;15.70;43.90;;;;;;5036399;28;20207;-63
2022/12/20 08:06:32;;;;;;;5.00;4.60;;;15.80;44.20;;;;;;5037005;28;20200;-64
2022/12/20 08:09:01;;;;;;;5.45;4.95;;;15.80;43.90;;;;;;5036067;28;20215;-63
2022/12/20 08:11:28;;;;;;;4.90;4.50;;;15.80;43.90;;;;;;5036818;28;20196;-63
2022/12/20 08:13:55;;;;;;;4.82;4.43;;;15.80;43.90;;;;;;5035391;28;20617;-63
2022/12/20 08:16:22;;;;;;;4.53;4.13;;;15.80;43.90;;;;;;5035415;28;20192;-63
2022/12/20 08:18:49;;;;;;;4.95;4.45;;;15.80;43.80;;;;;;5035255;28;20702;-63
2022/12/20 08:21:16;;;;;;;4.18;3.88;;;15.90;43.90;;;;;;5035631;28;20189;-63
2022/12/20 08:23:45;;;;;;;5.15;4.65;;;15.90;43.90;;;;;;5036842;28;20239;-64
2022/12/20 08:26:12;;;;;;;5.00;4.20;;;15.90;43.90;;;;;;5036281;28;20212;-64
2022/12/20 08:28:40;;;;;;;4.85;4.45;;;15.90;43.70;;;;;;5035157;28;20235;-64
2022/12/20 08:31:08;;;;;;;5.13;4.60;;;15.90;44.40;;;;;;5040607;28;20677;-64
2022/12/20 08:33:36;;;;;;;4.68;4.25;;;15.90;43.80;;;;;;5036221;28;20196;-64
2022/12/20 08:36:04;;;;;;;5.20;4.80;;;15.90;43.90;;;;;;5036659;28;20206;-64
2022/12/20 08:38:32;;;;;;;5.53;4.93;;;15.90;43.90;;;;;;5036158;28;20295;-64
2022/12/20 08:41:03;;;;;;;6.03;5.43;;;15.90;43.90;;;;;;5034590;28;20287;-64
2022/12/20 08:43:31;;;;;;;7.25;6.55;;;15.90;43.90;;;;;;5035674;28;20214;-64
2022/12/20 08:45:58;;;;;;;6.10;5.60;;;16.00;43.90;;;;;;5034813;28;20667;-64
2022/12/20 08:48:25;;;;;;;6.45;5.85;;;16.00;43.90;;;;;;5035889;28;20239;-64
2022/12/20 08:50:56;;;;;;;6.30;5.80;;;16.00;43.90;;;;;;5034771;28;20212;-64
2022/12/20 08:53:23;;;;;;;5.85;5.35;;;16.00;43.90;;;;;;5034622;28;20208;-64
2022/12/20 08:55:50;;;;;;;5.20;4.70;;;16.00;43.90;;;;;;5034769;28;20238;-64
2022/12/20 08:58:18;;;;;;;5.10;4.70;;;16.00;43.90;;;;;;5035666;28;20330;-64
2022/12/20 09:00:46;;;;;;;5.68;5.18;;;16.00;43.90;;;;;;5034699;28;20262;-64
2022/12/20 09:03:14;;;;;;;5.97;5.38;;;16.10;44.00;;;;;;5035624;28;20198;-64
2022/12/20 09:05:45;;;;;;;5.07;4.68;;;16.00;43.90;;;;;;5035521;28;20774;-64
2022/12/20 09:08:12;;;;;;;5.70;5.10;;;16.00;43.80;;;;;;5034438;28;20691;-64
2022/12/20 09:10:39;;;;;;;4.75;4.35;;;16.10;43.90;;;;;;5034513;28;20196;-64
2022/12/20 09:13:06;;;;;;;6.03;4.60;;;16.10;43.90;;;;;;5035312;28;20546;-64
2022/12/20 09:15:35;;;;;;;4.82;4.43;;;16.10;43.90;;;;;;5034061;28;20192;-64
2022/12/20 09:18:02;;;;;;;5.18;4.78;;;16.10;43.90;;;;;;5034093;28;20220;-64
2022/12/20 09:20:29;;;;;;;5.05;4.55;;;16.10;43.90;;;;;;5035337;28;20607;-64
2022/12/20 09:22:56;;;;;;;4.80;4.40;;;16.10;43.90;;;;;;5034275;28;20207;-64
2022/12/20 09:25:23;;;;;;;4.78;4.38;;;16.10;43.80;;;;;;5035700;28;20193;-64
2022/12/20 09:27:50;;;;;;;4.35;3.97;;;16.10;43.90;;;;;;5033881;28;20224;-64
2022/12/20 09:30:18;;;;;;;4.40;4.00;;;16.20;43.90;;;;;;5035219;28;20713;-64
2022/12/20 09:32:46;;;;;;;4.70;4.30;;;16.20;43.90;;;;;;5033886;28;20203;-64
2022/12/20 09:35:15;;;;;;;4.10;3.80;;;16.20;43.90;;;;;;5034382;28;20188;-64
2022/12/20 09:37:42;;;;;;;4.28;3.95;;;16.20;43.90;;;;;;5035142;28;20698;-64
2022/12/20 09:40:14;;;;;;;4.28;3.88;;;16.20;43.80;;;;;;5017664;28;20204;-64
2022/12/20 09:42:41;;;;;;;4.32;3.92;;;16.20;43.80;;;;;;5034195;28;20212;-64
2022/12/20 09:45:09;;;;;;;4.10;3.80;;;16.20;43.80;;;;;;5034031;28;20196;-64
2022/12/20 09:47:37;;;;;;;4.70;4.30;;;16.20;43.70;;;;;;5033817;28;20224;-64
2022/12/20 09:50:06;;;;;;;4.25;3.95;;;16.30;43.80;;;;;;5033772;28;20250;-64
2022/12/20 09:52:44;;;;;;;4.68;4.28;;;16.30;43.80;;;;;;5034213;28;20291;-63
2022/12/20 09:55:17;;;;;;;4.68;4.28;;;16.30;43.90;;;;;;5035301;28;20635;-63
2022/12/20 09:57:51;;;;;;;6.38;5.78;;;16.30;43.80;;;;;;5035761;28;20207;-64
2022/12/20 10:00:19;;;;;;;5.90;5.40;;;16.30;43.80;;;;;;5034363;28;20196;-64
2022/12/20 10:02:46;;;;;;;6.63;6.03;;;16.30;43.80;;;;;;5033953;28;20203;-64
2022/12/20 10:05:15;;;;;;;6.43;5.88;;;16.40;44.30;;;;;;5033426;28;20200;-64
2022/12/20 10:07:48;;;;;;;5.65;5.15;;;16.40;43.70;;;;;;5034401;28;20226;-64
2022/12/20 10:10:32;;;;;;;5.68;5.18;;;16.40;43.60;;;;;;5033253;28;20211;-63
2022/12/20 10:13:03;;;;;;;6.38;5.78;;;16.40;43.70;;;;;;5029721;28;20210;-63
2022/12/20 10:15:33;;;;;;;5.57;5.07;;;16.50;43.70;;;;;;5034472;28;20242;-63
2022/12/20 10:18:09;;;;;;;5.30;4.88;;;16.50;43.60;;;;;;5032710;28;20258;-63
2022/12/20 10:20:46;;;;;;;5.10;4.70;;;16.50;43.60;;;;;;5034123;28;20176;-63
2022/12/20 10:23:22;;;;;;;4.70;4.30;;;16.60;43.70;;;;;;5032266;28;20645;-63
2022/12/20 10:25:50;;;;;;;4.78;4.38;;;16.60;43.60;;;;;;5033230;28;20215;-64
2022/12/20 10:28:18;;;;;;;6.78;6.18;;;16.60;43.60;;;;;;5034054;28;20218;-64
2022/12/20 10:30:45;;;;;;;7.90;7.20;;;16.60;43.60;;;;;;5032958;28;20254;-64
2022/12/20 10:33:18;;;;;;;7.10;6.50;;;16.60;43.60;;;;;;5032819;28;20231;-64
2022/12/20 10:35:46;;;;;;;6.60;6.00;;;16.60;43.60;;;;;;5032803;28;20724;-64
2022/12/20 10:38:16;;;;;;;5.88;5.32;;;16.60;43.60;;;;;;5034022;28;20219;-64
2022/12/20 10:40:44;;;;;;;6.82;6.13;;;16.60;43.60;;;;;;5033493;28;20539;-64
2022/12/20 10:43:15;;;;;;;5.88;5.30;;;16.60;43.60;;;;;;5034667;28;20219;-63
2022/12/20 10:45:42;;;;;;;5.18;4.68;;;16.50;43.30;;;;;;5034258;28;20187;-64
2022/12/20 10:48:26;;;;;;;5.25;4.78;;;16.60;43.40;;;;;;5032608;28;20238;-64
2022/12/20 10:50:57;;;;;;;6.40;5.60;;;16.60;43.50;;;;;;5032805;28;20192;-64
2022/12/20 10:53:24;;;;;;;5.57;5.07;;;16.60;43.30;;;;;;5032951;28;20200;-64
2022/12/20 10:55:53;;;;;;;5.18;4.78;;;16.60;43.30;;;;;;5033822;28;20262;-64
2022/12/20 10:58:29;;;;;;;6.05;5.25;;;16.60;43.40;;;;;;5032637;28;20220;-64
2022/12/20 11:01:04;;;;;;;5.28;4.85;;;16.60;43.50;;;;;;5036704;28;20198;-64
2022/12/20 11:03:31;;;;;;;5.90;5.13;;;16.60;43.40;;;;;;5037880;28;20198;-64
2022/12/20 11:06:01;;;;;;;5.93;5.32;;;16.60;43.40;;;;;;5036572;28;20201;-64
2022/12/20 11:08:29;;;;;;;6.82;5.20;;;16.60;43.90;;;;;;5032957;28;20267;-64
2022/12/20 11:11:12;;;;;;;4.70;4.28;;;16.60;43.50;;;;;;5032520;28;20203;-64
2022/12/20 11:13:39;;;;;;;4.78;4.38;;;16.60;43.60;;;;;;5032366;28;20204;-64
2022/12/20 11:16:25;;;;;;;7.25;6.57;;;16.60;43.60;;;;;;5032653;28;20224;-64
2022/12/20 11:18:56;;;;;;;5.10;4.70;;;16.60;43.60;;;;;;5033805;28;20222;-64
2022/12/20 11:21:29;;;;;;;5.40;4.90;;;16.60;43.60;;;;;;5032461;28;20284;-64
2022/12/20 11:24:01;;;;;;;5.32;4.82;;;16.60;43.50;;;;;;5032347;28;20238;-64
2022/12/20 11:26:35;;;;;;;5.40;4.88;;;16.60;43.50;;;;;;5032168;28;20219;-64
2022/12/20 11:29:14;;;;;;;5.90;5.30;;;16.60;43.50;;;;;;5033509;28;20211;-64
2022/12/20 11:31:47;;;;;;;5.55;4.85;;;16.60;43.40;;;;;;5032284;28;20188;-64
2022/12/20 11:34:19;;;;;;;6.13;5.63;;;16.60;43.30;;;;;;5032987;28;20196;-64
2022/12/20 11:37:05;;;;;;;6.13;5.63;;;16.60;43.40;;;;;;5035281;28;20535;-64
2022/12/20 11:39:35;;;;;;;6.28;5.50;;;16.60;43.40;;;;;;5037869;28;20207;-64
2022/12/20 11:42:04;;;;;;;5.72;5.22;;;16.70;43.30;;;;;;5037053;28;20278;-64
2022/12/20 11:44:36;;;;;;;5.93;5.43;;;16.70;43.40;;;;;;5037221;28;20725;-64
2022/12/20 11:47:21;;;;;;;5.75;5.25;;;16.70;43.40;;;;;;5037726;28;20287;-64
2022/12/20 11:50:03;;;;;;;6.30;5.22;;;16.70;43.50;;;;;;5037452;28;20183;-64
2022/12/20 11:52:35;;;;;;;4.88;4.43;;;16.80;43.60;;;;;;5036991;28;20192;-64
2022/12/20 11:55:07;;;;;;;5.63;5.13;;;16.80;43.70;;;;;;5037253;28;20191;-64
2022/12/20 11:57:37;;;;;;;5.55;5.00;;;16.80;43.50;;;;;;5035961;28;20215;-64
2022/12/20 12:00:05;;;;;;;5.25;4.75;;;16.80;43.50;;;;;;5037185;28;20209;-64
2022/12/20 12:02:42;;;;;;;4.65;4.25;;;16.80;43.60;;;;;;5037044;28;20278;-64
2022/12/20 12:05:16;;;;;;;4.97;4.57;;;16.90;43.50;;;;;;5035824;28;20192;-64
2022/12/20 12:07:44;;;;;;;4.75;4.22;;;16.90;43.40;;;;;;5035609;28;20570;-64
2022/12/20 12:10:14;;;;;;;4.97;4.50;;;16.90;43.40;;;;;;5035735;28;20205;-64
2022/12/20 12:12:42;;;;;;;4.50;4.10;;;16.90;43.50;;;;;;5036969;28;20197;-64
2022/12/20 12:15:17;;;;;;;5.05;4.55;;;16.90;43.30;;;;;;5035785;28;20196;-64
2022/12/20 12:17:46;;;;;;;4.55;4.15;;;16.90;43.30;;;;;;5035607;28;20211;-64
2022/12/20 12:20:22;;;;;;;4.65;4.25;;;16.90;43.30;;;;;;5035752;28;20597;-64
2022/12/20 12:22:55;;;;;;;4.28;3.92;;;16.90;43.30;;;;;;5036864;28;20192;-64
2022/12/20 12:25:22;;;;;;;4.55;4.15;;;16.90;43.30;;;;;;5037714;28;20187;-64
2022/12/20 12:27:49;;;;;;;4.50;4.10;;;16.90;43.30;;;;;;5035886;28;20318;-64
2022/12/20 12:30:17;;;;;;;4.50;4.10;;;16.90;43.30;;;;;;5036615;28;20203;-64
2022/12/20 12:32:45;;;;;;;5.07;4.30;;;16.90;43.30;;;;;;5037625;28;20199;-64
2022/12/20 12:35:35;;;;;;;4.93;4.50;;;16.90;43.40;;;;;;5037112;28;20203;-64
2022/12/20 12:38:17;;;;;;;4.63;4.22;;;16.90;43.40;;;;;;5019799;28;20228;-64
2022/12/20 12:41:03;;;;;;;4.90;4.50;;;16.90;43.30;;;;;;5037313;28;20200;-64
2022/12/20 12:43:45;;;;;;;4.93;4.53;;;17.00;43.40;;;;;;5033156;28;20244;-64
2022/12/20 12:46:15;;;;;;;4.50;4.10;;;16.90;43.30;;;;;;5035400;28;20632;-64
2022/12/20 12:48:43;;;;;;;4.78;4.22;;;17.00;43.40;;;;;;5036088;28;20338;-64
2022/12/20 12:51:10;;;;;;;4.80;4.35;;;17.00;43.40;;;;;;5036076;28;20200;-64
2022/12/20 12:53:42;;;;;;;4.60;4.07;;;17.00;43.40;;;;;;5035517;28;20192;-64
2022/12/20 12:56:36;;;;;;;4.75;4.25;;;17.00;43.40;;;;;;5037329;28;20243;-64
2022/12/20 12:59:19;;;;;;;4.82;4.43;;;17.00;43.40;;;;;;5035374;28;20752;-64
2022/12/20 13:01:47;;;;;;;4.60;4.20;;;17.00;43.40;;;;;;5036565;28;20192;-64
2022/12/20 13:04:24;;;;;;;4.85;4.30;;;17.00;43.40;;;;;;5035748;28;20204;-64
2022/12/20 13:07:12;;;;;;;5.63;5.00;;;17.00;43.90;;;;;;5036209;28;20220;-64
2022/12/20 13:09:41;;;;;;;5.15;4.65;;;17.10;43.20;;;;;;5023333;28;20558;-64
2022/12/20 13:12:48;;;;;;;4.93;4.43;;;17.10;43.00;;;;;;5036257;28;20301;-64